Time;durP1;ratioP1;P1;durP2;ratioP2;P2;SDS_P1;SDS_P2;PMS_P1;PMS_P2;Temp;Humidity;BMP_temperature;BMP_pressure;BME280_temperature;BME280_humidity;BME280_pressure;Samples;Min_cycle;Max_cycle;Signal;HPM_P1;HPM_P2
2023/03/13 00:01:49;;;;;;;;;;;;;;;5.04;61.21;98711.28;5010299;28;2844;-83
2023/03/13 00:04:41;;;;;;;;;;;;;;;5.04;60.81;98703.28;5005410;28;2960;-85
2023/03/13 00:07:33;;;;;;;;;;;;;;;5.02;60.93;98698.16;5010246;28;2467;-83
2023/03/13 00:10:26;;;;;;;;;;;;;;;5.05;60.71;98696.91;5018720;28;2337;-84
2023/03/13 00:13:17;;;;;;;;;;;;;;;5.01;60.87;98701.88;5019545;28;2834;-84
2023/03/13 00:16:09;;;;;;;;;;;;;;;5.04;60.95;98689.94;5016682;28;2439;-83
2023/03/13 00:19:01;;;;;;;;;;;;;;;5.07;60.58;98686.81;5014462;28;2870;-82
2023/03/13 00:21:53;;;;;;;;;;;;;;;5.05;60.82;98679.03;5012390;28;2656;-82
2023/03/13 00:24:45;;;;;;;;;;;;;;;5.01;60.93;98669.88;5018520;28;2786;-84
2023/03/13 00:27:37;;;;;;;;;;;;;;;5.04;60.25;98663.25;5014658;28;2417;-82
2023/03/13 00:30:29;;;;;;;;;;;;;;;5.03;60.72;98650.94;5013626;28;2474;-81
2023/03/13 00:33:21;;;;;;;;;;;;;;;5.04;60.68;98655.25;5015339;28;2629;-83
2023/03/13 00:36:13;;;;;;;;;;;;;;;5.05;60.68;98649.69;5015645;28;2791;-83
2023/03/13 00:39:05;;;;;;;;;;;;;;;5.06;60.54;98643.31;5015394;28;2365;-82
2023/03/13 00:41:57;;;;;;;;;;;;;;;5.04;60.62;98647.25;5014328;28;2634;-84
2023/03/13 00:44:49;;;;;;;;;;;;;;;5.01;60.71;98640.50;5015114;28;2661;-84
2023/03/13 00:47:41;;;;;;;;;;;;;;;4.99;60.72;98638.06;5015466;28;2424;-84
2023/03/13 00:50:33;;;;;;;;;;;;;;;4.99;60.75;98630.06;5012626;28;2866;-82
2023/03/13 00:53:25;;;;;;;;;;;;;;;5.00;60.64;98629.03;5019502;28;2853;-82
2023/03/13 00:56:17;;;;;;;;;;;;;;;5.03;60.67;98621.59;5021038;28;2440;-83
2023/03/13 00:59:09;;;;;;;;;;;;;;;5.01;60.67;98619.16;5014732;28;2900;-84
2023/03/13 01:02:01;;;;;;;;;;;;;;;5.03;60.94;98614.44;5016059;28;2880;-83
2023/03/13 01:04:53;;;;;;;;;;;;;;;5.00;60.79;98593.53;5015783;28;2491;-83
2023/03/13 01:07:45;;;;;;;;;;;;;;;4.99;60.66;98599.91;5015778;28;2875;-82
2023/03/13 01:10:37;;;;;;;;;;;;;;;5.01;60.65;98582.63;5017231;28;2472;-83
2023/03/13 01:13:29;;;;;;;;;;;;;;;5.04;60.69;98570.69;5015973;28;2639;-84
2023/03/13 01:16:21;;;;;;;;;;;;;;;5.00;60.79;98566.88;5019323;28;2923;-84
2023/03/13 01:19:13;;;;;;;;;;;;;;;4.97;60.93;98576.13;5016341;28;2434;-83
2023/03/13 01:22:05;;;;;;;;;;;;;;;4.99;60.79;98567.88;5011614;28;2516;-82
2023/03/13 01:24:57;;;;;;;;;;;;;;;5.01;60.64;98553.28;5016954;28;2661;-83
2023/03/13 01:27:49;;;;;;;;;;;;;;;4.98;60.68;98547.59;5012957;28;2699;-84
2023/03/13 01:30:41;;;;;;;;;;;;;;;4.97;60.82;98538.78;5017730;28;2571;-82
2023/03/13 01:33:33;;;;;;;;;;;;;;;4.97;60.96;98533.44;5013530;28;2710;-83
2023/03/13 01:36:25;;;;;;;;;;;;;;;4.96;60.79;98526.47;5016033;28;2598;-83
2023/03/13 01:39:17;;;;;;;;;;;;;;;4.99;60.82;98515.34;5016071;28;2445;-82
2023/03/13 01:42:09;;;;;;;;;;;;;;;4.96;60.78;98501.66;5016621;28;2507;-83
2023/03/13 01:45:00;;;;;;;;;;;;;;;4.95;60.88;98490.19;5013739;28;2751;-83
2023/03/13 01:47:52;;;;;;;;;;;;;;;4.92;61.05;98484.50;5012666;28;2502;-83
2023/03/13 01:50:44;;;;;;;;;;;;;;;4.93;60.83;98484.25;5012403;28;2729;-83
2023/03/13 01:53:38;;;;;;;;;;;;;;;4.94;60.85;98469.88;5016296;28;2432;-83
2023/03/13 01:56:29;;;;;;;;;;;;;;;4.98;60.72;98467.56;5020417;28;2462;-83
2023/03/13 01:59:20;;;;;;;;;;;;;;;4.94;60.85;98471.72;5015987;28;2712;-81
2023/03/13 02:02:12;;;;;;;;;;;;;;;4.98;60.70;98472.91;5016671;28;2814;-83
2023/03/13 02:05:04;;;;;;;;;;;;;;;4.94;60.88;98464.56;5018279;28;2772;-83
2023/03/13 02:07:56;;;;;;;;;;;;;;;4.93;60.88;98444.25;5019008;28;2836;-83
2023/03/13 02:10:48;;;;;;;;;;;;;;;4.90;60.83;98449.25;5015985;28;2597;-82
2023/03/13 02:13:40;;;;;;;;;;;;;;;4.91;60.87;98422.34;5021761;28;2562;-83
2023/03/13 02:16:32;;;;;;;;;;;;;;;4.92;60.78;98420.47;5016675;28;2652;-82
2023/03/13 02:19:24;;;;;;;;;;;;;;;4.88;60.94;98396.13;5017808;28;2876;-82
2023/03/13 02:22:16;;;;;;;;;;;;;;;4.90;60.82;98390.56;5016240;28;2514;-82
2023/03/13 02:25:08;;;;;;;;;;;;;;;4.92;60.84;98380.47;5016652;28;2550;-82
2023/03/13 02:28:00;;;;;;;;;;;;;;;4.89;60.88;98384.41;5023352;28;2525;-83
2023/03/13 02:30:52;;;;;;;;;;;;;;;4.93;60.81;98390.09;5016858;28;2575;-83
2023/03/13 02:33:44;;;;;;;;;;;;;;;4.91;60.85;98378.81;5016223;28;2693;-82
2023/03/13 02:36:36;;;;;;;;;;;;;;;4.89;60.97;98367.59;5013805;28;2582;-84
2023/03/13 02:39:28;;;;;;;;;;;;;;;4.94;60.88;98359.69;5011935;28;2515;-84
2023/03/13 02:42:20;;;;;;;;;;;;;;;4.90;60.82;98356.69;5017027;28;2782;-84
2023/03/13 02:45:12;;;;;;;;;;;;;;;4.89;60.70;98346.25;5016438;28;2597;-84
2023/03/13 02:48:03;;;;;;;;;;;;;;;4.92;60.82;98346.59;5013837;28;2593;-84
2023/03/13 02:50:55;;;;;;;;;;;;;;;4.92;60.64;98330.59;5019792;28;2424;-84
2023/03/13 02:53:47;;;;;;;;;;;;;;;4.88;60.72;98324.13;5015254;28;2526;-83
2023/03/13 02:56:39;;;;;;;;;;;;;;;4.90;60.82;98319.34;5022415;28;2565;-83
2023/03/13 02:59:31;;;;;;;;;;;;;;;4.91;60.93;98312.13;5025159;28;2494;-83
2023/03/13 03:02:23;;;;;;;;;;;;;;;4.91;60.94;98304.97;5022391;28;2510;-84
2023/03/13 03:05:15;;;;;;;;;;;;;;;4.90;60.75;98303.31;5021440;28;2471;-84
2023/03/13 03:08:07;;;;;;;;;;;;;;;4.92;60.68;98295.09;5018603;28;2652;-84
2023/03/13 03:10:59;;;;;;;;;;;;;;;4.89;60.73;98292.91;5019795;28;2829;-83
2023/03/13 03:13:50;;;;;;;;;;;;;;;4.89;60.79;98283.06;5017180;28;2508;-84
2023/03/13 03:16:41;;;;;;;;;;;;;;;4.90;60.67;98275.84;5016546;28;2558;-83
2023/03/13 03:19:33;;;;;;;;;;;;;;;4.89;60.72;98276.91;5021083;28;2420;-82
2023/03/13 03:22:25;;;;;;;;;;;;;;;4.87;60.93;98279.00;5032240;28;2538;-82
2023/03/13 03:25:16;;;;;;;;;;;;;;;4.91;60.71;98264.97;5022196;28;2416;-85
2023/03/13 03:28:07;;;;;;;;;;;;;;;4.87;60.72;98258.47;5014884;28;2912;-84
2023/03/13 03:30:59;;;;;;;;;;;;;;;4.87;60.79;98255.78;5015543;28;3023;-84
2023/03/13 03:33:51;;;;;;;;;;;;;;;4.86;60.92;98242.72;5018641;28;3110;-83
2023/03/13 03:36:42;;;;;;;;;;;;;;;4.88;60.67;98240.59;5014849;28;2595;-83
2023/03/13 03:39:35;;;;;;;;;;;;;;;4.86;60.83;98234.72;5018375;28;2575;-84
2023/03/13 03:42:28;;;;;;;;;;;;;;;4.84;60.81;98231.47;5015009;28;2507;-82
2023/03/13 03:45:19;;;;;;;;;;;;;;;4.84;61.05;98226.94;5016656;28;2853;-83
2023/03/13 03:48:11;;;;;;;;;;;;;;;4.81;60.87;98222.09;5017110;28;2711;-83
2023/03/13 03:51:03;;;;;;;;;;;;;;;4.85;60.75;98211.72;5016179;28;2634;-82
2023/03/13 03:53:55;;;;;;;;;;;;;;;4.86;60.81;98213.38;5016222;28;2685;-83
2023/03/13 03:56:47;;;;;;;;;;;;;;;4.86;60.55;98192.03;5020940;28;2939;-86
2023/03/13 03:59:39;;;;;;;;;;;;;;;4.84;60.94;98186.94;5022177;28;2630;-84
2023/03/13 04:02:31;;;;;;;;;;;;;;;4.81;60.79;98182.06;5018616;28;2806;-84
2023/03/13 04:05:23;;;;;;;;;;;;;;;4.81;60.92;98171.41;5020260;28;2904;-84
2023/03/13 04:08:15;;;;;;;;;;;;;;;4.82;60.97;98162.34;5019813;28;2534;-83
2023/03/13 04:11:07;;;;;;;;;;;;;;;4.86;60.69;98152.84;5018246;28;2450;-83
2023/03/13 04:13:59;;;;;;;;;;;;;;;4.81;61.06;98138.59;5019341;28;2796;-83
2023/03/13 04:16:51;;;;;;;;;;;;;;;4.83;60.92;98142.66;5018176;28;2587;-83
2023/03/13 04:19:43;;;;;;;;;;;;;;;4.83;60.79;98137.31;5023801;28;2549;-84
2023/03/13 04:22:35;;;;;;;;;;;;;;;4.82;60.99;98126.88;5019576;28;2619;-83
2023/03/13 04:25:26;;;;;;;;;;;;;;;4.84;60.73;98128.25;5020039;28;2693;-84
2023/03/13 04:28:18;;;;;;;;;;;;;;;4.87;60.70;98129.63;5020470;28;2520;-83
2023/03/13 04:31:10;;;;;;;;;;;;;;;4.87;60.69;98127.78;5018546;28;2678;-83
2023/03/13 04:34:01;;;;;;;;;;;;;;;4.84;60.71;98122.13;5018948;28;2522;-82
2023/03/13 04:36:53;;;;;;;;;;;;;;;4.86;60.73;98110.16;5021219;28;2543;-83
2023/03/13 04:39:44;;;;;;;;;;;;;;;4.83;60.81;98104.50;5018077;28;2742;-84
2023/03/13 04:42:36;;;;;;;;;;;;;;;4.88;60.65;98088.56;5020638;28;2809;-83
2023/03/13 04:45:28;;;;;;;;;;;;;;;4.86;60.68;98083.47;5020783;28;2859;-83
2023/03/13 04:48:20;;;;;;;;;;;;;;;4.87;60.71;98073.63;5022077;28;2570;-83
2023/03/13 04:51:12;;;;;;;;;;;;;;;4.87;60.66;98061.09;5021346;28;2482;-82
2023/03/13 04:54:04;;;;;;;;;;;;;;;4.92;60.46;98069.19;5019324;28;2947;-84
2023/03/13 04:56:56;;;;;;;;;;;;;;;4.87;60.59;98070.94;5020316;28;2609;-84
2023/03/13 04:59:48;;;;;;;;;;;;;;;4.91;60.56;98072.06;5020202;28;2680;-83
2023/03/13 05:02:40;;;;;;;;;;;;;;;4.91;60.45;98062.22;5019231;28;2675;-83
2023/03/13 05:05:32;;;;;;;;;;;;;;;4.88;60.55;98065.38;5017684;28;2844;-84
2023/03/13 05:08:23;;;;;;;;;;;;;;;4.91;60.63;98059.56;5016913;28;2639;-83
2023/03/13 05:11:15;;;;;;;;;;;;;;;4.94;60.53;98047.56;5024557;28;2578;-84
2023/03/13 05:14:09;;;;;;;;;;;;;;;4.96;60.29;98037.47;5023984;28;2507;-84
2023/03/13 05:17:01;;;;;;;;;;;;;;;4.98;60.40;98033.53;5021373;28;2892;-83
2023/03/13 05:19:54;;;;;;;;;;;;;;;4.93;60.52;98027.31;5020564;28;2758;-83
2023/03/13 05:22:45;;;;;;;;;;;;;;;4.92;60.48;98018.50;5013423;28;2420;-84
2023/03/13 05:25:37;;;;;;;;;;;;;;;4.95;60.52;97999.34;5016484;28;2559;-84
2023/03/13 05:28:30;;;;;;;;;;;;;;;4.93;60.40;97985.44;5012616;28;2494;-84
2023/03/13 05:31:22;;;;;;;;;;;;;;;4.96;60.45;97984.13;5013686;28;2354;-84
2023/03/13 05:34:13;;;;;;;;;;;;;;;5.03;60.29;97976.78;5015069;28;2610;-84
2023/03/13 05:37:05;;;;;;;;;;;;;;;5.00;60.42;97970.06;5019341;28;2911;-84
2023/03/13 05:39:57;;;;;;;;;;;;;;;5.03;60.24;97957.28;5013730;28;2960;-84
2023/03/13 05:42:49;;;;;;;;;;;;;;;4.95;60.45;97959.31;5016753;28;2727;-84
2023/03/13 05:45:41;;;;;;;;;;;;;;;4.98;60.47;97960.69;5013109;28;2562;-85
2023/03/13 05:48:33;;;;;;;;;;;;;;;4.97;60.57;97959.88;5022591;28;2691;-84
2023/03/13 05:51:25;;;;;;;;;;;;;;;4.99;60.43;97951.63;5010893;28;2841;-83
2023/03/13 05:54:18;;;;;;;;;;;;;;;4.99;60.46;97941.75;5012833;28;2459;-84
2023/03/13 05:57:09;;;;;;;;;;;;;;;5.00;60.35;97942.59;5012454;28;2584;-84
2023/03/13 06:00:01;;;;;;;;;;;;;;;4.95;60.46;97929.19;5011752;28;2821;-84
2023/03/13 06:02:54;;;;;;;;;;;;;;;5.00;60.53;97922.06;5015914;28;2523;-85
2023/03/13 06:05:46;;;;;;;;;;;;;;;5.05;60.23;97902.63;5014202;28;2415;-82
2023/03/13 06:08:38;;;;;;;;;;;;;;;4.98;60.54;97892.13;5015187;28;2896;-85
2023/03/13 06:11:30;;;;;;;;;;;;;;;4.99;60.49;97887.59;5017408;28;2579;-83
2023/03/13 06:14:22;;;;;;;;;;;;;;;5.03;60.38;97877.25;5014974;28;2508;-83
2023/03/13 06:17:15;;;;;;;;;;;;;;;5.01;60.49;97866.84;5021136;28;2570;-84
2023/03/13 06:20:06;;;;;;;;;;;;;;;5.05;60.26;97856.47;5029600;28;2330;-83
2023/03/13 06:22:57;;;;;;;;;;;;;;;5.07;60.38;97836.50;5018447;28;2448;-84
2023/03/13 06:25:49;;;;;;;;;;;;;;;5.10;60.30;97838.66;5019864;28;2615;-85
2023/03/13 06:28:41;;;;;;;;;;;;;;;5.10;60.26;97832.50;5015843;28;2507;-83
2023/03/13 06:31:33;;;;;;;;;;;;;;;5.13;60.21;97829.34;5016689;28;2901;-82
2023/03/13 06:34:25;;;;;;;;;;;;;;;5.15;60.03;97821.91;5021112;28;2550;-83
2023/03/13 06:37:17;;;;;;;;;;;;;;;5.07;60.36;97814.34;5015948;28;2911;-83
2023/03/13 06:40:09;;;;;;;;;;;;;;;5.14;60.20;97804.28;5015672;28;2496;-84
2023/03/13 06:43:01;;;;;;;;;;;;;;;5.15;60.10;97814.69;5013588;28;2740;-84
2023/03/13 06:45:53;;;;;;;;;;;;;;;5.14;60.29;97807.72;5015171;28;2695;-82
2023/03/13 06:48:46;;;;;;;;;;;;;;;5.18;60.26;97798.19;5019037;28;2606;-83
2023/03/13 06:51:37;;;;;;;;;;;;;;;5.18;60.06;97794.72;5015727;28;2586;-83
2023/03/13 06:54:29;;;;;;;;;;;;;;;5.15;60.24;97787.22;5014918;28;2672;-83
2023/03/13 06:57:21;;;;;;;;;;;;;;;5.14;60.12;97773.06;5016518;28;2491;-81
2023/03/13 07:00:13;;;;;;;;;;;;;;;5.16;60.21;97778.94;5014767;28;2817;-83
2023/03/13 07:03:05;;;;;;;;;;;;;;;5.19;60.21;97780.31;5018988;28;2566;-83
2023/03/13 07:05:57;;;;;;;;;;;;;;;5.22;60.12;97753.13;5017297;28;2514;-83
2023/03/13 07:08:49;;;;;;;;;;;;;;;5.19;60.31;97749.09;5013848;28;4914;-82
2023/03/13 07:11:41;;;;;;;;;;;;;;;5.22;59.96;97745.91;5018521;28;2580;-84
2023/03/13 07:14:33;;;;;;;;;;;;;;;5.23;60.11;97741.38;5019039;28;4183;-84
2023/03/13 07:17:25;;;;;;;;;;;;;;;5.22;60.12;97729.91;5021970;28;2562;-82
2023/03/13 07:20:17;;;;;;;;;;;;;;;5.24;59.96;97727.81;5022784;28;4637;-82
2023/03/13 07:23:09;;;;;;;;;;;;;;;5.32;59.85;97721.16;5022059;28;2705;-82
2023/03/13 07:26:01;;;;;;;;;;;;;;;5.31;59.89;97718.78;5022327;28;2863;-83
2023/03/13 07:28:53;;;;;;;;;;;;;;;5.43;59.48;97698.03;5023218;28;2250;-83
2023/03/13 07:31:45;;;;;;;;;;;;;;;5.51;59.17;97691.44;5025884;28;2478;-82
2023/03/13 07:34:37;;;;;;;;;;;;;;;5.33;59.82;97685.44;5028025;28;2807;-84
2023/03/13 07:37:29;;;;;;;;;;;;;;;5.34;59.95;97680.91;5027102;28;3589;-82
2023/03/13 07:40:21;;;;;;;;;;;;;;;5.38;59.83;97676.66;5025470;28;2688;-81
2023/03/13 07:43:13;;;;;;;;;;;;;;;5.38;59.73;97669.47;5028504;28;2534;-81
2023/03/13 07:46:05;;;;;;;;;;;;;;;5.42;59.52;97651.88;5026883;28;2489;-82
2023/03/13 07:48:57;;;;;;;;;;;;;;;5.39;59.80;97644.38;5024883;28;2549;-82
2023/03/13 07:51:49;;;;;;;;;;;;;;;5.44;59.46;97641.75;5022826;28;2617;-81
2023/03/13 07:54:41;;;;;;;;;;;;;;;5.51;59.46;97641.53;5015895;28;2646;-84
2023/03/13 07:57:33;;;;;;;;;;;;;;;5.42;59.56;97633.19;5014287;28;2432;-82
2023/03/13 08:00:25;;;;;;;;;;;;;;;5.46;59.48;97626.25;5012517;28;2857;-81
2023/03/13 08:03:17;;;;;;;;;;;;;;;5.54;59.50;97616.97;5013988;28;3118;-83
2023/03/13 08:06:09;;;;;;;;;;;;;;;5.46;59.54;97602.22;5020456;28;2314;-80
2023/03/13 08:09:01;;;;;;;;;;;;;;;5.56;59.47;97592.66;5026361;28;2203;-82
2023/03/13 08:11:53;;;;;;;;;;;;;;;5.50;59.41;97586.53;5020453;28;2479;-82
2023/03/13 08:14:45;;;;;;;;;;;;;;;5.45;59.58;97579.28;5029439;28;2448;-81
2023/03/13 08:17:37;;;;;;;;;;;;;;;5.49;59.61;97574.22;5036571;28;2255;-82
2023/03/13 08:20:29;;;;;;;;;;;;;;;5.57;59.33;97563.06;5033436;28;2529;-82
2023/03/13 08:23:21;;;;;;;;;;;;;;;5.53;59.53;97550.47;5022594;28;2265;-82
2023/03/13 08:26:13;;;;;;;;;;;;;;;5.50;59.60;97543.00;5018889;28;4117;-83
2023/03/13 08:29:05;;;;;;;;;;;;;;;5.50;59.99;97538.47;5019465;28;2651;-82
2023/03/13 08:31:57;;;;;;;;;;;;;;;5.51;59.61;97529.41;5020098;28;4655;-80
2023/03/13 08:34:49;;;;;;;;;;;;;;;5.55;59.46;97535.00;5021616;28;3930;-83
2023/03/13 08:37:42;;;;;;;;;;;;;;;5.60;59.21;97519.81;5034138;28;3449;-82
2023/03/13 08:40:34;;;;;;;;;;;;;;;5.56;59.48;97507.25;5033140;28;2600;-81
2023/03/13 08:43:25;;;;;;;;;;;;;;;5.55;59.58;97494.97;5021647;28;2946;-82
2023/03/13 08:46:17;;;;;;;;;;;;;;;5.56;59.35;97486.72;5020686;28;2743;-82
2023/03/13 08:49:11;;;;;;;;;;;;;;;5.57;59.35;97476.84;5017398;28;2902;-80
2023/03/13 08:52:02;;;;;;;;;;;;;;;5.54;59.57;97474.69;5026371;28;2335;-81
2023/03/13 08:54:53;;;;;;;;;;;;;;;5.55;59.54;97463.72;5027730;28;4938;-81
2023/03/13 08:57:45;;;;;;;;;;;;;;;5.55;59.62;97452.25;5029308;28;4995;-81
2023/03/13 09:00:37;;;;;;;;;;;;;;;5.51;59.53;97440.50;5033188;28;2367;-81
2023/03/13 09:03:29;;;;;;;;;;;;;;;5.54;59.65;97440.78;5027825;28;3813;-79
2023/03/13 09:06:21;;;;;;;;;;;;;;;5.57;59.53;97429.56;5023627;28;2303;-79
2023/03/13 09:09:14;;;;;;;;;;;;;;;5.54;59.77;97421.28;5033457;28;2303;-78
2023/03/13 09:12:05;;;;;;;;;;;;;;;5.56;59.55;97417.31;5023458;28;2336;-78
2023/03/13 09:14:57;;;;;;;;;;;;;;;5.57;59.38;97397.53;5033748;28;1918;-79
2023/03/13 09:17:49;;;;;;;;;;;;;;;5.54;59.72;97394.59;5026725;28;2256;-78
2023/03/13 09:20:41;;;;;;;;;;;;;;;5.63;59.36;97382.31;5020104;28;2975;-78
2023/03/13 09:23:33;;;;;;;;;;;;;;;5.51;59.54;97377.25;5021908;28;2897;-79
2023/03/13 09:26:26;;;;;;;;;;;;;;;5.50;59.73;97374.81;5017878;28;2304;-79
2023/03/13 09:29:17;;;;;;;;;;;;;;;5.63;59.27;97366.31;5019606;28;2339;-78
2023/03/13 09:32:08;;;;;;;;;;;;;;;5.58;59.27;97353.75;5024757;28;2177;-78
2023/03/13 09:35:00;;;;;;;;;;;;;;;5.50;59.85;97346.28;5016524;28;2582;-77
2023/03/13 09:37:52;;;;;;;;;;;;;;;5.45;60.00;97335.59;5016392;28;2264;-78
2023/03/13 09:40:44;;;;;;;;;;;;;;;5.49;59.89;97327.84;5018198;28;2315;-78
2023/03/13 09:43:36;;;;;;;;;;;;;;;5.49;59.87;97322.50;5017094;28;2411;-77
2023/03/13 09:46:28;;;;;;;;;;;;;;;5.50;59.88;97314.25;5017746;28;2331;-77
2023/03/13 09:49:19;;;;;;;;;;;;;;;5.44;60.05;97301.94;5019327;28;2387;-76
2023/03/13 09:52:11;;;;;;;;;;;;;;;5.48;60.02;97297.69;5017033;28;2267;-77
2023/03/13 09:55:03;;;;;;;;;;;;;;;5.60;59.77;97276.88;5015604;28;2381;-76
2023/03/13 09:57:55;;;;;;;;;;;;;;;5.49;59.69;97269.91;5017407;28;2527;-76
2023/03/13 10:00:47;;;;;;;;;;;;;;;5.43;60.20;97262.97;5016978;28;2630;-76
2023/03/13 10:03:38;;;;;;;;;;;;;;;5.40;60.13;97248.28;5030782;28;2305;-76
2023/03/13 10:06:31;;;;;;;;;;;;;;;5.41;60.13;97233.91;5028277;28;956;-76
2023/03/13 10:09:22;;;;;;;;;;;;;;;5.43;60.10;97229.06;5030278;28;2488;-76
2023/03/13 10:12:13;;;;;;;;;;;;;;;5.48;59.80;97217.59;5029719;28;1003;-76
2023/03/13 10:15:05;;;;;;;;;;;;;;;5.49;60.08;97216.53;5026075;28;2433;-77
2023/03/13 10:17:57;;;;;;;;;;;;;;;5.54;59.83;97202.41;5026778;28;2341;-76
2023/03/13 10:20:49;;;;;;;;;;;;;;;5.50;60.12;97198.63;5034299;28;2542;-76
2023/03/13 10:23:41;;;;;;;;;;;;;;;5.45;60.18;97181.56;5026067;28;2412;-76
2023/03/13 10:26:33;;;;;;;;;;;;;;;5.40;60.20;97173.56;5026097;28;2237;-76
2023/03/13 10:29:25;;;;;;;;;;;;;;;5.33;60.51;97154.38;5022545;28;2219;-76
2023/03/13 10:32:17;;;;;;;;;;;;;;;5.36;60.44;97139.69;5031248;28;2384;-77
2023/03/13 10:35:09;;;;;;;;;;;;;;;5.36;60.26;97123.69;5031447;28;2360;-75
2023/03/13 10:38:01;;;;;;;;;;;;;;;5.34;60.54;97113.25;5033571;28;1052;-75
2023/03/13 10:40:52;;;;;;;;;;;;;;;5.34;60.32;97093.78;5033510;28;2415;-76
2023/03/13 10:43:44;;;;;;;;;;;;;;;5.38;60.40;97079.66;5041913;28;2368;-77
2023/03/13 10:46:36;;;;;;;;;;;;;;;5.42;60.02;97075.34;5025852;28;2403;-76
2023/03/13 10:49:28;;;;;;;;;;;;;;;5.43;60.18;97065.47;5022636;28;2408;-77
2023/03/13 10:52:20;;;;;;;;;;;;;;;5.47;59.98;97061.19;5021339;28;2200;-77
2023/03/13 10:55:13;;;;;;;;;;;;;;;5.52;59.98;97041.69;5016278;28;2429;-77
2023/03/13 10:58:04;;;;;;;;;;;;;;;5.46;60.09;97027.56;5015959;28;2301;-78
2023/03/13 11:00:56;;;;;;;;;;;;;;;5.37;60.35;97024.66;5023974;28;2255;-81
2023/03/13 11:03:48;;;;;;;;;;;;;;;5.42;60.31;97000.63;5016200;28;2642;-76
2023/03/13 11:06:41;;;;;;;;;;;;;;;5.47;59.94;96997.94;5015171;28;2642;-74
2023/03/13 11:09:32;;;;;;;;;;;;;;;5.48;59.99;96988.06;5017462;28;2186;-77
2023/03/13 11:12:25;;;;;;;;;;;;;;;5.47;60.24;96976.59;5012276;28;2514;-77
2023/03/13 11:15:17;;;;;;;;;;;;;;;5.40;60.47;96951.25;5016051;28;2129;-81
2023/03/13 11:18:08;;;;;;;;;;;;;;;5.37;60.48;96946.47;5013729;28;2605;-79
2023/03/13 11:21:00;;;;;;;;;;;;;;;5.52;60.02;96932.25;5016270;28;2324;-80
2023/03/13 11:23:52;;;;;;;;;;;;;;;5.52;60.17;96921.59;5017638;28;2176;-79
2023/03/13 11:26:44;;;;;;;;;;;;;;;5.42;60.36;96909.09;5031443;28;2173;-81
2023/03/13 11:29:36;;;;;;;;;;;;;;;5.36;60.55;96899.53;5028932;28;2036;-79
2023/03/13 11:32:28;;;;;;;;;;;;;;;5.50;60.16;96886.34;5023258;28;2411;-79
2023/03/13 11:35:20;;;;;;;;;;;;;;;5.46;60.16;96878.09;5038875;28;2218;-79
2023/03/13 11:38:12;;;;;;;;;;;;;;;5.41;60.10;96865.59;5024812;28;2076;-80
2023/03/13 11:41:04;;;;;;;;;;;;;;;5.38;60.69;96855.47;5031755;28;2238;-81
2023/03/13 11:43:56;;;;;;;;;;;;;;;5.40;60.35;96844.50;5026876;28;2158;-81
2023/03/13 11:46:48;;;;;;;;;;;;;;;5.43;60.38;96827.94;5032784;28;2260;-82
2023/03/13 11:49:40;;;;;;;;;;;;;;;5.42;60.39;96821.03;5033237;28;2167;-81
2023/03/13 11:52:32;;;;;;;;;;;;;;;5.40;60.37;96807.16;5025486;28;4644;-80
2023/03/13 11:55:24;;;;;;;;;;;;;;;5.43;60.49;96793.25;5026041;28;2321;-82
2023/03/13 11:58:16;;;;;;;;;;;;;;;5.44;60.53;96785.00;5026908;28;2245;-81
2023/03/13 12:01:08;;;;;;;;;;;;;;;5.51;60.22;96773.19;5034897;28;2372;-83
2023/03/13 12:04:00;;;;;;;;;;;;;;;5.45;60.21;96761.75;5030777;28;1758;-82
2023/03/13 12:06:53;;;;;;;;;;;;;;;5.46;60.36;96758.81;5026501;28;1659;-82
2023/03/13 12:09:44;;;;;;;;;;;;;;;5.46;60.29;96750.00;5032248;28;1595;-82
2023/03/13 12:12:36;;;;;;;;;;;;;;;5.46;60.35;96737.44;5029904;28;1485;-83
2023/03/13 12:15:27;;;;;;;;;;;;;;;5.43;60.41;96735.34;5032311;28;1891;-83
2023/03/13 12:18:18;;;;;;;;;;;;;;;5.41;60.48;96721.50;5035524;28;1249;-82
2023/03/13 12:21:11;;;;;;;;;;;;;;;5.43;60.57;96705.19;5055254;28;1312;-83
2023/03/13 12:24:02;;;;;;;;;;;;;;;5.46;60.39;96699.28;5027143;28;944;-83
2023/03/13 12:26:54;;;;;;;;;;;;;;;5.49;60.16;96680.03;5036314;28;1433;-82
2023/03/13 12:29:46;;;;;;;;;;;;;;;5.57;60.08;96684.78;5044852;28;1662;-82
2023/03/13 12:32:38;;;;;;;;;;;;;;;5.56;59.99;96671.72;5030265;28;1796;-82
2023/03/13 12:35:32;;;;;;;;;;;;;;;5.50;60.34;96665.66;5043220;28;1943;-83
2023/03/13 12:38:23;;;;;;;;;;;;;;;5.44;60.41;96656.06;5036939;28;1169;-83
2023/03/13 12:41:15;;;;;;;;;;;;;;;5.50;60.29;96633.63;5043730;28;1709;-83
2023/03/13 12:44:07;;;;;;;;;;;;;;;5.53;60.29;96618.88;5036710;28;1621;-81
2023/03/13 12:46:59;;;;;;;;;;;;;;;5.42;60.42;96608.34;5036311;28;2332;-81
2023/03/13 12:49:51;;;;;;;;;;;;;;;5.40;60.38;96591.81;5034789;28;1568;-82
2023/03/13 12:52:43;;;;;;;;;;;;;;;5.44;60.60;96571.50;5030668;28;1983;-82
2023/03/13 12:55:35;;;;;;;;;;;;;;;5.45;60.62;96562.41;5033664;28;2610;-80
2023/03/13 12:58:27;;;;;;;;;;;;;;;5.40;60.58;96559.78;5032629;28;1640;-80
2023/03/13 13:01:19;;;;;;;;;;;;;;;5.43;60.47;96559.22;5035470;28;1575;-80
2023/03/13 13:04:11;;;;;;;;;;;;;;;5.42;60.65;96543.50;5028400;28;2340;-80
2023/03/13 13:07:03;;;;;;;;;;;;;;;5.40;60.77;96546.44;5027985;28;2304;-79
2023/03/13 13:09:55;;;;;;;;;;;;;;;5.45;60.30;96540.25;5032561;28;2647;-78
2023/03/13 13:12:47;;;;;;;;;;;;;;;5.43;60.53;96527.19;5044251;28;2245;-78
2023/03/13 13:15:39;;;;;;;;;;;;;;;5.41;60.72;96525.88;5027622;28;2408;-80
2023/03/13 13:18:31;;;;;;;;;;;;;;;5.38;60.71;96515.78;5033282;28;2345;-79
2023/03/13 13:21:25;;;;;;;;;;;;;;;5.37;60.82;96508.84;5025768;28;2301;-77
2023/03/13 13:24:17;;;;;;;;;;;;;;;5.36;60.71;96499.28;5025954;28;2412;-79
2023/03/13 13:27:08;;;;;;;;;;;;;;;5.38;60.89;96492.56;5018799;28;4975;-78
2023/03/13 13:30:00;;;;;;;;;;;;;;;5.31;60.99;96489.44;5028801;28;1961;-76
2023/03/13 13:32:52;;;;;;;;;;;;;;;5.37;60.88;96474.97;5025468;28;2192;-78
2023/03/13 13:35:45;;;;;;;;;;;;;;;5.34;60.95;96482.75;5035659;28;2254;-76
2023/03/13 13:38:38;;;;;;;;;;;;;;;5.28;61.07;96470.53;5020168;28;2383;-76
2023/03/13 13:41:30;;;;;;;;;;;;;;;5.28;61.11;96452.66;5021737;28;2423;-76
2023/03/13 13:44:21;;;;;;;;;;;;;;;5.27;61.15;96443.06;5019078;28;4969;-76
2023/03/13 13:47:13;;;;;;;;;;;;;;;5.32;61.14;96435.00;5021468;28;2345;-78
2023/03/13 13:50:05;;;;;;;;;;;;;;;5.25;61.07;96431.88;5019480;28;2345;-77
2023/03/13 13:52:59;;;;;;;;;;;;;;;5.23;61.13;96416.19;5028605;28;2433;-76
2023/03/13 13:55:50;;;;;;;;;;;;;;;5.29;60.98;96392.88;5028010;28;2122;-76
2023/03/13 13:58:42;;;;;;;;;;;;;;;5.25;61.27;96378.53;5027219;28;2436;-76
2023/03/13 14:01:34;;;;;;;;;;;;;;;5.24;61.32;96361.75;5026718;28;2400;-75
2023/03/13 14:04:26;;;;;;;;;;;;;;;5.24;61.40;96358.28;5030282;28;2106;-75
2023/03/13 14:07:18;;;;;;;;;;;;;;;5.21;61.31;96346.31;5026981;28;2376;-75
2023/03/13 14:10:10;;;;;;;;;;;;;;;5.18;61.33;96330.09;5031399;28;3418;-77
2023/03/13 14:13:04;;;;;;;;;;;;;;;5.16;61.33;96317.03;5029438;28;2352;-80
2023/03/13 14:15:55;;;;;;;;;;;;;;;5.15;61.33;96304.00;5025598;28;2426;-78
2023/03/13 14:18:47;;;;;;;;;;;;;;;5.16;61.53;96293.03;5028595;28;2451;-79
2023/03/13 14:21:39;;;;;;;;;;;;;;;5.14;61.52;96279.19;5027503;28;2363;-79
2023/03/13 14:24:31;;;;;;;;;;;;;;;5.15;61.45;96269.31;5023666;28;2411;-79
2023/03/13 14:27:23;;;;;;;;;;;;;;;5.15;61.40;96251.44;5019164;28;2396;-78
2023/03/13 14:30:15;;;;;;;;;;;;;;;5.13;61.51;96252.81;5019842;28;2230;-77
2023/03/13 14:33:09;;;;;;;;;;;;;;;5.09;61.57;96236.59;5025141;28;2820;-76
2023/03/13 14:36:00;;;;;;;;;;;;;;;5.10;61.56;96232.84;5021336;28;2314;-77
2023/03/13 14:38:53;;;;;;;;;;;;;;;5.09;61.73;96217.94;5025961;28;2441;-75
2023/03/13 14:41:44;;;;;;;;;;;;;;;5.12;61.50;96217.34;5035925;28;2717;-75
2023/03/13 14:44:37;;;;;;;;;;;;;;;5.12;61.69;96212.00;5031169;28;2367;-77
2023/03/13 14:47:30;;;;;;;;;;;;;;;5.13;61.58;96210.91;5029490;28;2047;-76
2023/03/13 14:50:21;;;;;;;;;;;;;;;5.14;61.52;96215.16;5030152;28;2357;-79
2023/03/13 14:53:13;;;;;;;;;;;;;;;5.11;61.62;96212.28;5034241;28;2440;-78
2023/03/13 14:56:05;;;;;;;;;;;;;;;5.10;61.59;96208.84;5024004;28;2297;-79
2023/03/13 14:58:57;;;;;;;;;;;;;;;5.09;61.71;96190.44;5023082;28;2531;-77
2023/03/13 15:01:49;;;;;;;;;;;;;;;5.08;61.63;96176.31;5027610;28;2449;-79
2023/03/13 15:04:41;;;;;;;;;;;;;;;5.08;61.71;96173.66;5027031;28;2419;-77
2023/03/13 15:07:33;;;;;;;;;;;;;;;5.09;61.59;96169.09;5025336;28;2390;-79
2023/03/13 15:10:25;;;;;;;;;;;;;;;5.11;61.57;96161.63;5023762;28;2738;-78
2023/03/13 15:13:17;;;;;;;;;;;;;;;5.07;61.61;96153.41;5025182;28;2424;-79
2023/03/13 15:16:09;;;;;;;;;;;;;;;5.09;61.66;96132.59;5027665;28;2356;-77
2023/03/13 15:19:01;;;;;;;;;;;;;;;5.09;61.55;96124.59;5023195;28;2468;-78